Time;durP1;ratioP1;P1;durP2;ratioP2;P2;SDS_P1;SDS_P2;PMS_P1;PMS_P2;Temp;Humidity;BMP_temperature;BMP_pressure;BME280_temperature;BME280_humidity;BME280_pressure;Samples;Min_cycle;Max_cycle;Signal;HPM_P1;HPM_P2
2020/12/29 00:01:35;;;;;;;18.35;8.27;;;3.70;99.90;;;;;;5045862;28;20113;-57
2020/12/29 00:04:02;;;;;;;17.85;8.43;;;3.70;99.90;;;;;;5050714;28;20128;-56
2020/12/29 00:06:27;;;;;;;15.05;7.88;;;3.70;99.90;;;;;;5047078;28;20048;-51
2020/12/29 00:08:53;;;;;;;18.42;8.73;;;3.70;99.90;;;;;;5048241;28;20430;-51
2020/12/29 00:11:19;;;;;;;16.25;8.50;;;3.80;99.90;;;;;;5045379;28;20039;-53
2020/12/29 00:13:45;;;;;;;16.52;8.80;;;3.70;99.90;;;;;;5036461;28;20555;-56
2020/12/29 00:16:10;;;;;;;19.73;8.02;;;3.70;99.90;;;;;;5049831;28;20068;-54
2020/12/29 00:18:36;;;;;;;18.65;7.38;;;3.80;99.90;;;;;;5043514;28;20732;-54
2020/12/29 00:21:02;;;;;;;15.10;7.65;;;3.70;99.90;;;;;;5050885;28;20041;-50
2020/12/29 00:23:28;;;;;;;13.25;6.70;;;3.70;99.90;;;;;;5039009;28;20397;-49
2020/12/29 00:25:54;;;;;;;14.60;6.78;;;3.60;99.90;;;;;;5050689;28;20110;-55
2020/12/29 00:28:21;;;;;;;16.63;8.57;;;3.50;99.90;;;;;;5046584;28;20519;-53
2020/12/29 00:30:47;;;;;;;22.15;9.45;;;3.50;99.90;;;;;;5046266;28;20404;-54
2020/12/29 00:33:13;;;;;;;23.10;10.18;;;3.40;99.90;;;;;;5043292;28;20033;-56
2020/12/29 00:35:39;;;;;;;23.67;10.20;;;3.40;99.90;;;;;;5045274;28;20107;-58
2020/12/29 00:38:04;;;;;;;20.90;10.77;;;3.30;99.90;;;;;;5041784;28;20045;-50
2020/12/29 00:40:30;;;;;;;25.02;11.40;;;3.30;99.90;;;;;;5033539;28;20037;-50
2020/12/29 00:42:56;;;;;;;29.15;10.15;;;3.30;99.90;;;;;;5042799;28;20029;-54
2020/12/29 00:45:21;;;;;;;25.48;10.80;;;3.30;99.90;;;;;;5047196;28;20115;-54
2020/12/29 00:47:47;;;;;;;18.52;9.27;;;3.40;99.90;;;;;;5045478;28;20025;-53
2020/12/29 00:50:13;;;;;;;19.17;9.07;;;3.30;99.90;;;;;;5019248;28;20037;-58
2020/12/29 00:52:39;;;;;;;16.88;8.70;;;3.40;99.90;;;;;;5037625;28;20083;-57
2020/12/29 00:55:04;;;;;;;21.83;9.85;;;3.40;99.90;;;;;;5049809;28;20068;-57
2020/12/29 00:57:30;;;;;;;19.35;9.60;;;3.40;99.90;;;;;;5045268;28;20124;-54
2020/12/29 00:59:56;;;;;;;18.73;9.48;;;3.50;99.90;;;;;;5040794;28;20204;-58
2020/12/29 01:02:21;;;;;;;19.77;8.93;;;3.50;99.90;;;;;;5031974;28;20040;-48
2020/12/29 01:04:47;;;;;;;17.40;8.77;;;3.40;99.90;;;;;;5011539;28;20033;-54
2020/12/29 01:07:13;;;;;;;19.50;8.38;;;3.40;99.90;;;;;;5029916;28;20466;-54
2020/12/29 01:09:38;;;;;;;16.75;7.90;;;3.40;99.90;;;;;;5030083;28;20059;-51
2020/12/29 01:12:04;;;;;;;17.20;5.95;;;3.40;99.90;;;;;;5048089;28;20349;-51
2020/12/29 01:14:30;;;;;;;17.02;7.03;;;3.40;99.90;;;;;;5048216;28;20440;-56
2020/12/29 01:16:56;;;;;;;17.27;6.53;;;3.40;99.90;;;;;;5045953;28;20131;-54
2020/12/29 01:19:21;;;;;;;10.23;5.32;;;3.40;99.90;;;;;;5049274;28;20025;-54
2020/12/29 01:21:51;;;;;;;12.20;5.25;;;3.40;99.90;;;;;;5044825;28;20094;-53
2020/12/29 01:24:17;;;;;;;11.40;6.32;;;3.40;99.90;;;;;;5033852;28;20068;-52
2020/12/29 01:26:42;;;;;;;10.57;6.22;;;3.40;99.90;;;;;;5029786;28;20780;-54
2020/12/29 01:29:09;;;;;;;13.10;5.93;;;3.40;99.90;;;;;;5032240;28;20057;-57
2020/12/29 01:31:35;;;;;;;12.88;6.72;;;3.50;99.90;;;;;;5029507;28;20415;-51
2020/12/29 01:34:01;;;;;;;12.68;5.93;;;3.50;99.90;;;;;;5028955;28;20417;-58
2020/12/29 01:36:27;;;;;;;13.45;5.95;;;3.50;99.90;;;;;;5029549;28;20025;-56
2020/12/29 01:38:54;;;;;;;13.80;5.85;;;3.60;99.90;;;;;;5029031;28;20103;-55
2020/12/29 01:41:22;;;;;;;13.60;5.78;;;3.70;99.90;;;;;;5040620;28;20481;-55
2020/12/29 01:43:51;;;;;;;13.30;6.18;;;3.70;99.90;;;;;;5029219;28;20419;-55
2020/12/29 01:46:19;;;;;;;10.10;4.95;;;3.70;99.90;;;;;;5041924;28;20037;-57
2020/12/29 01:48:45;;;;;;;17.77;6.22;;;3.70;99.90;;;;;;5048800;28;20389;-55
2020/12/29 01:51:10;;;;;;;16.95;6.00;;;3.70;99.90;;;;;;5046118;28;20087;-53
2020/12/29 01:53:39;;;;;;;12.82;6.00;;;3.70;99.90;;;;;;5046360;28;20040;-54
2020/12/29 01:56:10;;;;;;;15.40;6.50;;;3.70;99.90;;;;;;5044088;28;20045;-55
2020/12/29 01:58:37;;;;;;;12.50;4.45;;;3.70;99.90;;;;;;5048739;28;20492;-52
2020/12/29 02:01:03;;;;;;;9.82;4.93;;;3.80;99.90;;;;;;5038498;28;20038;-56
2020/12/29 02:03:29;;;;;;;14.35;5.85;;;3.80;99.90;;;;;;5037465;28;20564;-55
2020/12/29 02:05:55;;;;;;;10.60;4.90;;;3.80;99.90;;;;;;5048503;28;20512;-56
2020/12/29 02:08:21;;;;;;;10.95;4.88;;;3.80;99.90;;;;;;5039215;28;20045;-53
2020/12/29 02:10:47;;;;;;;8.23;4.15;;;3.80;99.90;;;;;;5028592;28;20029;-54
2020/12/29 02:13:13;;;;;;;8.23;3.92;;;3.80;99.90;;;;;;5029024;28;20037;-56
2020/12/29 02:15:38;;;;;;;9.10;4.28;;;3.90;99.90;;;;;;5028647;28;20374;-55
2020/12/29 02:18:04;;;;;;;7.35;3.17;;;3.90;99.90;;;;;;5029625;28;20061;-54
2020/12/29 02:20:30;;;;;;;11.02;4.75;;;4.00;99.90;;;;;;5028787;28;20040;-52
2020/12/29 02:22:55;;;;;;;5.68;3.08;;;4.20;99.90;;;;;;5028472;28;20079;-54
2020/12/29 02:25:21;;;;;;;15.57;3.30;;;4.40;99.90;;;;;;5028492;28;20079;-52
2020/12/29 02:27:49;;;;;;;7.95;3.97;;;4.40;99.90;;;;;;5028409;28;20025;-51
2020/12/29 02:30:16;;;;;;;6.05;3.17;;;4.40;99.90;;;;;;5043487;28;20091;-54
2020/12/29 02:32:42;;;;;;;7.93;3.03;;;4.40;99.90;;;;;;5048606;28;20032;-56
2020/12/29 02:35:10;;;;;;;5.35;2.67;;;4.40;99.90;;;;;;5043967;28;20041;-47
2020/12/29 02:37:35;;;;;;;7.28;3.22;;;4.40;99.90;;;;;;5048291;28;20036;-51
2020/12/29 02:40:01;;;;;;;6.00;2.88;;;4.40;99.90;;;;;;5043866;28;20396;-55
2020/12/29 02:42:27;;;;;;;5.68;2.63;;;4.40;99.90;;;;;;5050648;28;20025;-56
2020/12/29 02:44:53;;;;;;;6.65;2.72;;;4.40;99.90;;;;;;5039753;28;20273;-53
2020/12/29 02:47:18;;;;;;;4.65;2.47;;;4.50;99.90;;;;;;5048987;28;20469;-55
2020/12/29 02:49:44;;;;;;;12.10;5.97;;;4.60;99.90;;;;;;5049662;28;20037;-56
2020/12/29 02:52:10;;;;;;;6.13;3.80;;;4.50;99.90;;;;;;5052416;28;20224;-52
2020/12/29 02:54:36;;;;;;;8.00;4.75;;;4.50;99.90;;;;;;5039956;28;20477;-54
2020/12/29 02:57:02;;;;;;;7.88;4.68;;;4.40;99.90;;;;;;5050449;28;20443;-55
2020/12/29 02:59:28;;;;;;;9.63;4.63;;;4.40;99.90;;;;;;5047290;28;20124;-47
2020/12/29 03:01:53;;;;;;;9.70;4.22;;;4.40;99.90;;;;;;5052089;28;20712;-52
2020/12/29 03:04:19;;;;;;;11.00;4.50;;;4.30;99.90;;;;;;5051162;28;20411;-51
2020/12/29 03:06:45;;;;;;;8.75;4.00;;;4.30;99.90;;;;;;5049389;28;20061;-57
2020/12/29 03:09:12;;;;;;;10.65;3.70;;;4.20;99.90;;;;;;5047287;28;20473;-57
2020/12/29 03:11:38;;;;;;;10.50;2.95;;;4.30;99.90;;;;;;5051755;28;20086;-50
2020/12/29 03:14:06;;;;;;;11.20;4.15;;;4.30;99.90;;;;;;5046328;28;20128;-52
2020/12/29 03:16:32;;;;;;;3.40;2.42;;;4.30;99.90;;;;;;5034226;28;20037;-55
2020/12/29 03:18:58;;;;;;;9.20;3.08;;;4.30;99.90;;;;;;5351697;22;20374;-59
2020/12/29 03:21:24;;;;;;;4.97;2.60;;;4.40;99.90;;;;;;5022196;22;20060;-56
2020/12/29 03:23:50;;;;;;;7.40;2.40;;;4.50;99.90;;;;;;5072001;28;20052;-47
2020/12/29 03:26:17;;;;;;;9.85;2.00;;;4.50;99.90;;;;;;5070580;28;20028;-54
2020/12/29 03:28:44;;;;;;;8.00;2.13;;;4.50;99.90;;;;;;5070959;28;20036;-51
2020/12/29 03:31:09;;;;;;;8.30;2.58;;;4.60;99.90;;;;;;5069026;28;20040;-52
2020/12/29 03:33:35;;;;;;;7.82;2.50;;;4.60;99.90;;;;;;5070516;28;20055;-52
2020/12/29 03:36:02;;;;;;;6.20;2.40;;;4.60;99.90;;;;;;5070354;28;20060;-51
2020/12/29 03:38:28;;;;;;;4.88;1.73;;;4.60;99.90;;;;;;5071230;28;20024;-55
2020/12/29 03:40:54;;;;;;;4.38;1.35;;;4.60;99.90;;;;;;5070651;28;20033;-52
2020/12/29 03:43:21;;;;;;;2.83;1.13;;;4.70;99.90;;;;;;5070049;28;20040;-53
2020/12/29 03:45:48;;;;;;;4.72;1.45;;;4.80;99.90;;;;;;5071406;28;20032;-54
2020/12/29 03:48:17;;;;;;;2.35;1.30;;;4.90;99.90;;;;;;5070490;28;20052;-56
2020/12/29 03:50:43;;;;;;;3.92;1.27;;;4.90;99.90;;;;;;5070162;28;20040;-54
2020/12/29 03:53:09;;;;;;;4.50;1.50;;;4.90;99.90;;;;;;5069852;28;20036;-52
2020/12/29 03:55:36;;;;;;;5.53;1.30;;;5.00;99.90;;;;;;5070993;28;20044;-54
2020/12/29 03:58:03;;;;;;;2.72;1.00;;;5.00;99.90;;;;;;5069920;28;20032;-53
2020/12/29 04:00:29;;;;;;;2.28;0.90;;;5.00;99.90;;;;;;5070992;28;20036;-54
2020/12/29 04:02:55;;;;;;;4.10;1.00;;;5.00;99.90;;;;;;5069972;28;20032;-55
2020/12/29 04:05:21;;;;;;;8.20;0.75;;;5.00;99.90;;;;;;5070661;28;20028;-54
2020/12/29 04:07:48;;;;;;;6.40;0.80;;;5.00;99.90;;;;;;5069964;28;20369;-56
2020/12/29 04:10:14;;;;;;;2.95;0.65;;;5.10;99.90;;;;;;5070912;28;20044;-49
2020/12/29 04:12:40;;;;;;;5.63;1.10;;;5.10;99.90;;;;;;5069983;28;20109;-55
2020/12/29 04:15:07;;;;;;;2.47;0.77;;;5.10;99.90;;;;;;5070499;28;20074;-54
2020/12/29 04:17:34;;;;;;;5.75;1.15;;;5.00;99.90;;;;;;5069917;28;20032;-53
2020/12/29 04:20:00;;;;;;;5.85;1.10;;;5.00;99.90;;;;;;5070188;28;20065;-51
2020/12/29 04:22:30;;;;;;;4.65;1.13;;;5.00;99.90;;;;;;5070019;28;20037;-55
2020/12/29 04:24:56;;;;;;;4.38;0.90;;;4.90;99.90;;;;;;5069433;28;20043;-53
2020/12/29 04:27:22;;;;;;;2.58;1.08;;;4.90;99.90;;;;;;5069635;28;20138;-55
2020/12/29 04:29:49;;;;;;;2.65;1.35;;;4.80;99.90;;;;;;5070659;28;20037;-48
2020/12/29 04:32:15;;;;;;;4.35;0.82;;;4.80;99.90;;;;;;5069745;28;20115;-53
2020/12/29 04:34:40;;;;;;;5.80;0.80;;;4.80;99.90;;;;;;5064607;28;20072;-51
2020/12/29 04:37:06;;;;;;;4.22;1.05;;;4.70;99.90;;;;;;5070461;28;20408;-53
2020/12/29 04:39:32;;;;;;;3.92;0.98;;;4.80;99.90;;;;;;5069330;28;20032;-53
2020/12/29 04:42:03;;;;;;;7.07;1.25;;;4.80;99.90;;;;;;5070484;28;20052;-57
2020/12/29 04:44:29;;;;;;;7.43;0.90;;;4.70;99.90;;;;;;5069291;28;20055;-54
2020/12/29 04:46:55;;;;;;;4.28;0.80;;;4.80;99.90;;;;;;5070076;28;20040;-54
2020/12/29 04:49:22;;;;;;;4.63;0.85;;;4.70;99.90;;;;;;5069171;28;20094;-55
2020/12/29 04:51:50;;;;;;;4.85;0.95;;;4.70;99.90;;;;;;5069910;28;20054;-58
2020/12/29 04:54:19;;;;;;;4.82;1.00;;;4.70;99.90;;;;;;5068838;28;20454;-57
2020/12/29 04:56:53;;;;;;;6.53;1.40;;;4.70;99.90;;;;;;5068369;28;20067;-54
2020/12/29 04:59:19;;;;;;;5.10;1.00;;;4.70;99.90;;;;;;5068923;28;20043;-55
2020/12/29 05:01:45;;;;;;;4.40;1.20;;;4.70;99.90;;;;;;5070027;28;20036;-57
2020/12/29 05:04:10;;;;;;;4.03;1.23;;;4.70;99.90;;;;;;5068013;28;20028;-52
2020/12/29 05:06:36;;;;;;;5.85;1.00;;;4.70;99.90;;;;;;5069713;28;20186;-48
2020/12/29 05:09:02;;;;;;;4.82;1.15;;;4.70;99.90;;;;;;5068446;28;20034;-52
2020/12/29 05:11:33;;;;;;;3.38;1.02;;;4.80;99.90;;;;;;5070007;28;20040;-50
2020/12/29 05:13:59;;;;;;;5.60;1.10;;;4.80;99.90;;;;;;5068498;28;20491;-52
2020/12/29 05:16:25;;;;;;;3.80;1.55;;;4.90;99.90;;;;;;5068863;28;20063;-55
2020/12/29 05:18:52;;;;;;;3.35;1.75;;;4.90;99.90;;;;;;5068755;28;20112;-51
2020/12/29 05:21:19;;;;;;;5.72;1.70;;;4.80;99.90;;;;;;5069188;28;20044;-55
2020/12/29 05:23:44;;;;;;;4.03;1.77;;;4.80;99.90;;;;;;5068435;28;20093;-54
2020/12/29 05:26:12;;;;;;;6.88;1.80;;;4.80;99.90;;;;;;5068221;28;20040;-57
2020/12/29 05:28:38;;;;;;;2.97;1.38;;;4.80;99.90;;;;;;5069352;28;20405;-58
2020/12/29 05:31:05;;;;;;;5.28;1.17;;;4.80;99.90;;;;;;5068221;28;20120;-55
2020/12/29 05:33:31;;;;;;;6.80;3.22;;;4.80;99.90;;;;;;5069191;28;20028;-58
2020/12/29 05:36:02;;;;;;;6.57;2.55;;;4.90;99.90;;;;;;5067039;28;20047;-53
2020/12/29 05:38:28;;;;;;;6.53;2.17;;;4.90;99.90;;;;;;5068398;28;20044;-48
2020/12/29 05:40:54;;;;;;;6.22;2.88;;;4.90;99.90;;;;;;5069563;28;20024;-53
2020/12/29 05:43:31;;;;;;;10.20;3.25;;;4.90;99.90;;;;;;5067999;28;20040;-53
2020/12/29 05:46:15;;;;;;;14.43;4.50;;;4.90;99.90;;;;;;5069249;28;20103;-50
2020/12/29 05:48:41;;;;;;;8.20;4.55;;;4.90;99.90;;;;;;5068229;28;20510;-58
2020/12/29 05:51:14;;;;;;;10.75;4.63;;;4.90;99.90;;;;;;5068878;28;20064;-54
2020/12/29 05:53:40;;;;;;;9.30;4.35;;;4.80;99.90;;;;;;5068124;28;20492;-56
2020/12/29 05:56:08;;;;;;;9.45;4.47;;;4.80;99.90;;;;;;5068715;28;20112;-56
2020/12/29 05:58:35;;;;;;;10.18;4.95;;;4.80;99.90;;;;;;5067114;28;20036;-53
2020/12/29 06:01:01;;;;;;;13.23;4.32;;;4.80;99.90;;;;;;5067220;28;20078;-54
2020/12/29 06:03:29;;;;;;;12.63;5.97;;;4.80;99.90;;;;;;5067613;28;20036;-55
2020/12/29 06:05:58;;;;;;;16.92;6.07;;;4.70;99.90;;;;;;5067720;28;20039;-56
2020/12/29 06:08:27;;;;;;;12.95;6.40;;;4.80;99.90;;;;;;5067361;28;20044;-54
2020/12/29 06:10:59;;;;;;;9.90;5.38;;;4.80;99.90;;;;;;5067587;28;20132;-53
2020/12/29 06:13:28;;;;;;;11.43;4.82;;;4.80;99.90;;;;;;5068511;28;20475;-52
2020/12/29 06:15:59;;;;;;;11.40;5.05;;;4.80;99.90;;;;;;5067654;28;20063;-57
2020/12/29 06:18:36;;;;;;;10.75;4.75;;;4.70;99.90;;;;;;5045007;28;20045;-55
2020/12/29 06:21:07;;;;;;;14.20;5.18;;;4.80;99.90;;;;;;5048044;28;20070;-58
2020/12/29 06:23:50;;;;;;;12.90;4.25;;;4.70;99.90;;;;;;5048202;28;20033;-56
2020/12/29 06:26:18;;;;;;;10.85;4.38;;;4.70;99.90;;;;;;5048568;28;20112;-54
2020/12/29 06:28:53;;;;;;;9.57;4.82;;;4.70;99.90;;;;;;5048353;28;20063;-53
2020/12/29 06:31:27;;;;;;;7.78;4.40;;;4.70;99.90;;;;;;5030346;28;20469;-57
2020/12/29 06:33:57;;;;;;;9.02;4.18;;;4.60;99.90;;;;;;5048259;28;20501;-58
2020/12/29 06:36:28;;;;;;;11.20;4.60;;;4.60;99.90;;;;;;5048536;28;20048;-54
2020/12/29 06:38:59;;;;;;;12.18;4.10;;;4.50;99.90;;;;;;5048541;28;20041;-53
2020/12/29 06:41:28;;;;;;;8.60;4.57;;;4.50;99.90;;;;;;5048266;28;20036;-52
2020/12/29 06:43:54;;;;;;;7.10;3.95;;;4.40;99.90;;;;;;5048321;28;20026;-56
2020/12/29 06:46:20;;;;;;;10.90;3.88;;;4.50;99.90;;;;;;5048229;28;20037;-58
2020/12/29 06:48:46;;;;;;;10.15;4.60;;;4.50;99.90;;;;;;5048538;28;20040;-57
2020/12/29 06:51:13;;;;;;;8.45;3.95;;;4.50;99.90;;;;;;5048096;28;20029;-57
2020/12/29 06:53:42;;;;;;;9.15;4.15;;;4.60;99.90;;;;;;5048089;28;20045;-52
2020/12/29 06:56:18;;;;;;;9.43;4.82;;;4.50;99.90;;;;;;5047998;28;20484;-51
2020/12/29 06:58:44;;;;;;;10.43;4.90;;;4.60;99.90;;;;;;5048311;28;20065;-52
2020/12/29 07:01:17;;;;;;;12.00;5.22;;;4.60;99.90;;;;;;5048318;28;20392;-57
2020/12/29 07:03:43;;;;;;;11.07;4.45;;;4.60;99.90;;;;;;5048191;28;20523;-53
2020/12/29 07:06:09;;;;;;;7.22;4.45;;;4.60;99.90;;;;;;5048178;28;20032;-51
2020/12/29 07:08:38;;;;;;;6.85;3.20;;;4.70;99.90;;;;;;5048016;28;20094;-56
2020/12/29 07:11:22;;;;;;;11.07;3.60;;;4.70;99.90;;;;;;5048046;28;20047;-57
2020/12/29 07:13:51;;;;;;;6.72;2.58;;;4.70;99.90;;;;;;5058084;28;20102;-52
2020/12/29 07:16:24;;;;;;;7.32;2.35;;;4.70;99.90;;;;;;5068311;28;20036;-51
2020/12/29 07:18:51;;;;;;;9.60;2.63;;;4.70;99.90;;;;;;5066061;28;20498;-56
2020/12/29 07:21:25;;;;;;;5.75;2.38;;;4.70;99.90;;;;;;5066664;28;20059;-56
2020/12/29 07:23:52;;;;;;;7.65;3.15;;;4.70;99.90;;;;;;5068168;28;20024;-55
2020/12/29 07:26:20;;;;;;;9.52;3.78;;;4.60;99.90;;;;;;5067884;28;20082;-53
2020/12/29 07:28:49;;;;;;;8.07;4.13;;;4.70;99.90;;;;;;5070639;28;20032;-54
2020/12/29 07:31:15;;;;;;;8.00;2.67;;;4.70;99.90;;;;;;5071500;28;20043;-53
2020/12/29 07:33:55;;;;;;;8.10;2.42;;;4.60;99.90;;;;;;5071305;28;20044;-53
2020/12/29 07:36:22;;;;;;;5.15;2.75;;;4.60;99.90;;;;;;5071416;28;20063;-54
2020/12/29 07:38:50;;;;;;;6.28;2.70;;;4.60;99.90;;;;;;5071254;28;20031;-54
2020/12/29 07:41:17;;;;;;;8.85;2.80;;;4.50;99.90;;;;;;5071403;28;20674;-51
2020/12/29 07:43:44;;;;;;;9.25;3.85;;;4.50;99.90;;;;;;5071293;28;20021;-52
2020/12/29 07:46:10;;;;;;;8.13;3.70;;;4.50;99.90;;;;;;5071159;28;20038;-56
2020/12/29 07:48:37;;;;;;;7.10;3.60;;;4.50;99.90;;;;;;5071148;28;20029;-51
2020/12/29 07:51:03;;;;;;;14.15;4.95;;;4.40;99.90;;;;;;5071099;28;20157;-53
2020/12/29 07:53:29;;;;;;;9.93;4.63;;;4.40;99.90;;;;;;5071070;28;20198;-55
2020/12/29 07:55:56;;;;;;;9.77;4.93;;;4.40;99.90;;;;;;5071313;28;20028;-57
2020/12/29 07:58:22;;;;;;;5.63;3.33;;;4.50;99.90;;;;;;5070879;28;20037;-56
2020/12/29 08:00:47;;;;;;;7.10;3.17;;;4.50;99.90;;;;;;5069759;28;20032;-56
2020/12/29 08:03:13;;;;;;;5.18;2.47;;;4.60;99.90;;;;;;5070927;28;20040;-52
2020/12/29 08:05:39;;;;;;;6.38;3.42;;;4.60;99.90;;;;;;5070723;28;20047;-53
2020/12/29 08:08:10;;;;;;;6.13;2.63;;;4.60;99.90;;;;;;5070877;28;20036;-55
2020/12/29 08:10:37;;;;;;;5.22;2.65;;;4.60;99.90;;;;;;5070726;28;20475;-56
2020/12/29 08:13:05;;;;;;;7.85;2.53;;;4.60;99.90;;;;;;5070527;28;20476;-47
2020/12/29 08:15:36;;;;;;;10.32;3.38;;;4.60;99.90;;;;;;5070495;28;20127;-54
2020/12/29 08:18:08;;;;;;;10.80;3.53;;;4.60;99.90;;;;;;5070637;28;20572;-54
2020/12/29 08:21:08;;;;;;;5.55;3.28;;;4.60;99.90;;;;;;5070535;28;20097;-55
2020/12/29 08:23:34;;;;;;;8.68;4.20;;;4.60;99.90;;;;;;5026852;28;20040;-52
2020/12/29 08:26:01;;;;;;;8.20;4.25;;;4.60;99.90;;;;;;5070770;28;20070;-52
2020/12/29 08:28:33;;;;;;;6.68;3.63;;;4.60;99.90;;;;;;5070549;28;20029;-54
2020/12/29 08:31:03;;;;;;;6.68;4.15;;;4.70;99.90;;;;;;5070369;28;20094;-55
2020/12/29 08:33:30;;;;;;;6.75;4.03;;;4.70;99.90;;;;;;5070255;28;20041;-50
2020/12/29 08:36:01;;;;;;;10.30;4.72;;;4.70;99.90;;;;;;5070541;28;20056;-55
2020/12/29 08:38:30;;;;;;;9.50;5.78;;;4.70;99.90;;;;;;5069671;28;20130;-54
2020/12/29 08:40:59;;;;;;;14.20;6.63;;;4.70;99.90;;;;;;5069818;28;20476;-55
2020/12/29 08:43:28;;;;;;;15.05;6.65;;;4.80;99.90;;;;;;5069934;28;20472;-57
2020/12/29 08:46:05;;;;;;;15.32;7.03;;;4.70;99.90;;;;;;5070266;28;20476;-54
2020/12/29 08:48:31;;;;;;;17.50;7.57;;;4.80;99.90;;;;;;5069945;28;20037;-56
2020/12/29 08:50:58;;;;;;;14.65;7.13;;;4.80;99.90;;;;;;5069803;28;20020;-52
2020/12/29 08:53:25;;;;;;;12.52;5.00;;;4.90;99.90;;;;;;5069956;28;20025;-53
2020/12/29 08:55:51;;;;;;;5.15;2.78;;;4.90;99.90;;;;;;5069816;28;20260;-58
2020/12/29 08:58:28;;;;;;;6.18;2.92;;;4.80;99.90;;;;;;5069793;28;20035;-56
2020/12/29 09:00:54;;;;;;;3.88;1.90;;;4.80;99.90;;;;;;5069772;28;20479;-53
2020/12/29 09:03:25;;;;;;;8.20;3.67;;;4.80;99.90;;;;;;5069498;28;20036;-52
2020/12/29 09:05:53;;;;;;;7.22;2.90;;;4.80;99.90;;;;;;5069993;28;20123;-52
2020/12/29 09:08:31;;;;;;;9.75;3.10;;;4.70;99.90;;;;;;5069558;28;20032;-53
2020/12/29 09:11:13;;;;;;;5.68;2.22;;;4.70;99.90;;;;;;5069865;28;20037;-51
2020/12/29 09:14:05;;;;;;;7.70;2.78;;;4.60;99.90;;;;;;5069181;28;20036;-55
2020/12/29 09:16:31;;;;;;;5.90;1.73;;;4.70;99.90;;;;;;5069315;28;20127;-52
2020/12/29 09:18:57;;;;;;;8.93;2.30;;;4.70;99.90;;;;;;5069336;28;20031;-56
2020/12/29 09:21:25;;;;;;;5.32;2.00;;;4.70;99.90;;;;;;5068967;28;20106;-56
2020/12/29 09:24:01;;;;;;;6.30;2.35;;;4.70;99.90;;;;;;5069255;28;20032;-58
2020/12/29 09:26:27;;;;;;;5.35;2.10;;;4.60;99.90;;;;;;5069006;28;20113;-54
2020/12/29 09:28:54;;;;;;;5.13;2.58;;;4.60;99.90;;;;;;5069498;28;20086;-58
2020/12/29 09:31:27;;;;;;;4.95;2.08;;;4.50;99.90;;;;;;5069149;28;20120;-51
2020/12/29 09:33:53;;;;;;;5.43;2.05;;;4.50;99.90;;;;;;5068954;28;20147;-58
2020/12/29 09:36:20;;;;;;;3.60;1.52;;;4.50;99.90;;;;;;5067157;28;20401;-58
2020/12/29 09:38:50;;;;;;;4.03;1.50;;;4.50;99.90;;;;;;5056255;28;20037;-55
2020/12/29 09:41:16;;;;;;;4.13;1.50;;;4.50;99.90;;;;;;5051854;28;20428;-52
2020/12/29 09:43:47;;;;;;;4.38;1.10;;;4.40;99.90;;;;;;5049957;28;20110;-59
2020/12/29 09:46:13;;;;;;;4.80;1.58;;;4.40;99.90;;;;;;5064200;28;20036;-58
2020/12/29 09:48:40;;;;;;;3.47;1.25;;;4.50;99.90;;;;;;5050294;28;20087;-58
2020/12/29 09:51:06;;;;;;;5.50;2.20;;;4.50;99.90;;;;;;5049478;28;20029;-56
2020/12/29 09:53:32;;;;;;;6.38;1.70;;;4.50;99.90;;;;;;5061217;28;20047;-58
2020/12/29 09:55:58;;;;;;;8.77;2.72;;;4.60;99.90;;;;;;5056904;28;20032;-55
2020/12/29 09:58:24;;;;;;;12.77;3.58;;;4.60;99.90;;;;;;5056657;28;20025;-55
2020/12/29 10:00:50;;;;;;;12.25;4.63;;;4.60;99.90;;;;;;5064519;28;20124;-57
2020/12/29 10:03:19;;;;;;;11.18;5.20;;;4.60;99.90;;;;;;5049984;28;20469;-58
2020/12/29 10:05:48;;;;;;;9.00;4.80;;;4.70;99.90;;;;;;5051333;28;20032;-53
2020/12/29 10:08:13;;;;;;;8.75;3.10;;;4.70;99.90;;;;;;5067856;28;20125;-56
2020/12/29 10:10:39;;;;;;;6.07;1.83;;;4.80;99.90;;;;;;5050994;28;20476;-58
2020/12/29 10:13:05;;;;;;;9.27;2.83;;;4.80;99.90;;;;;;5049757;28;20033;-57
2020/12/29 10:15:32;;;;;;;5.65;2.17;;;4.90;99.90;;;;;;5059463;28;20332;-57
2020/12/29 10:18:00;;;;;;;4.82;2.10;;;4.90;99.90;;;;;;5054660;28;20071;-54
2020/12/29 10:20:26;;;;;;;5.97;2.65;;;5.00;99.90;;;;;;5056452;28;20056;-55
2020/12/29 10:22:51;;;;;;;6.65;2.22;;;5.00;99.90;;;;;;5065768;28;20047;-55
2020/12/29 10:25:17;;;;;;;4.07;2.15;;;5.00;99.90;;;;;;5057940;28;20024;-58
2020/12/29 10:27:45;;;;;;;5.97;2.72;;;5.00;99.90;;;;;;5057741;28;20578;-57
2020/12/29 10:30:11;;;;;;;4.63;1.75;;;5.00;99.90;;;;;;5068456;28;20049;-57
2020/12/29 10:32:39;;;;;;;6.65;1.98;;;5.00;99.90;;;;;;5066542;28;20182;-57
2020/12/29 10:35:06;;;;;;;4.63;1.73;;;5.00;99.90;;;;;;5064103;28;20384;-59
2020/12/29 10:37:31;;;;;;;3.65;1.80;;;5.00;99.90;;;;;;5066899;28;20131;-56
2020/12/29 10:39:57;;;;;;;5.57;2.45;;;5.00;99.90;;;;;;5068465;28;20536;-54
2020/12/29 10:42:23;;;;;;;5.63;2.83;;;5.10;99.90;;;;;;5068547;28;20396;-58
2020/12/29 10:44:49;;;;;;;12.70;4.50;;;5.10;99.90;;;;;;5055803;28;20047;-57
2020/12/29 10:47:15;;;;;;;5.35;2.60;;;5.20;99.90;;;;;;5058729;28;20044;-58
2020/12/29 10:49:41;;;;;;;8.10;2.60;;;5.20;99.90;;;;;;5065212;28;20063;-59
2020/12/29 10:52:06;;;;;;;8.98;3.00;;;5.20;99.90;;;;;;5060533;28;20032;-56
2020/12/29 10:54:32;;;;;;;3.00;1.33;;;5.30;99.90;;;;;;5063260;28;20048;-58
2020/12/29 10:56:58;;;;;;;4.20;1.73;;;5.30;99.90;;;;;;5031341;28;20120;-57
2020/12/29 10:59:23;;;;;;;4.15;1.95;;;5.30;99.90;;;;;;5055105;28;20060;-54
2020/12/29 11:01:55;;;;;;;7.05;3.08;;;5.40;99.90;;;;;;5055766;28;20025;-59
2020/12/29 11:04:21;;;;;;;5.78;3.58;;;5.40;99.90;;;;;;5044441;28;20041;-58
2020/12/29 11:06:47;;;;;;;5.32;2.38;;;5.50;99.90;;;;;;5066021;28;20029;-56
2020/12/29 11:09:19;;;;;;;6.03;2.53;;;5.50;99.90;;;;;;5063191;28;20039;-56
2020/12/29 11:11:45;;;;;;;4.50;1.80;;;5.50;99.90;;;;;;5056789;28;20033;-51
2020/12/29 11:14:10;;;;;;;3.67;1.42;;;5.50;99.90;;;;;;5060131;28;20070;-52
2020/12/29 11:16:36;;;;;;;8.60;2.60;;;5.50;99.90;;;;;;5055184;28;20113;-56
2020/12/29 11:19:02;;;;;;;7.47;2.08;;;5.40;99.90;;;;;;5061937;28;20437;-54
2020/12/29 11:21:28;;;;;;;4.97;2.75;;;5.40;99.90;;;;;;5062502;28;20190;-55
2020/12/29 11:23:53;;;;;;;4.97;2.05;;;5.40;99.90;;;;;;5045811;28;20048;-54
2020/12/29 11:26:20;;;;;;;6.07;2.47;;;5.30;99.90;;;;;;5058952;28;20349;-55
2020/12/29 11:28:47;;;;;;;5.72;2.60;;;5.30;99.90;;;;;;5061582;28;20511;-52
2020/12/29 11:31:17;;;;;;;8.43;2.92;;;5.30;99.90;;;;;;5060241;28;20495;-54
2020/12/29 11:33:43;;;;;;;7.18;3.70;;;5.30;99.90;;;;;;5060388;28;20020;-55
2020/12/29 11:36:10;;;;;;;8.52;3.28;;;5.30;99.90;;;;;;5060204;28;20186;-57
2020/12/29 11:38:36;;;;;;;5.18;2.80;;;5.20;99.90;;;;;;5059576;28;20205;-53
2020/12/29 11:41:02;;;;;;;6.43;2.83;;;5.20;99.90;;;;;;5057731;28;20371;-52
2020/12/29 11:43:28;;;;;;;7.30;2.72;;;5.20;99.90;;;;;;5061274;28;20067;-53
2020/12/29 11:45:53;;;;;;;6.15;3.00;;;5.20;99.90;;;;;;5063901;28;20064;-52
2020/12/29 11:48:19;;;;;;;6.70;3.28;;;5.30;99.90;;;;;;5063936;28;20025;-56
2020/12/29 11:50:45;;;;;;;7.47;4.03;;;5.30;99.90;;;;;;5063223;28;20041;-52
2020/12/29 11:53:11;;;;;;;6.55;3.60;;;5.40;99.90;;;;;;5053945;28;20029;-53
2020/12/29 11:55:37;;;;;;;8.52;4.38;;;5.40;99.90;;;;;;5065535;28;20039;-52
2020/12/29 11:58:02;;;;;;;11.00;4.10;;;5.30;99.90;;;;;;5054157;28;20032;-55
2020/12/29 12:00:28;;;;;;;9.55;3.97;;;5.30;99.90;;;;;;5066855;28;20089;-54
2020/12/29 12:02:54;;;;;;;8.20;3.30;;;5.20;99.90;;;;;;5062846;28;20025;-48
2020/12/29 12:05:19;;;;;;;7.35;3.67;;;5.00;99.90;;;;;;5063103;28;20127;-50
2020/12/29 12:07:45;;;;;;;9.90;3.67;;;5.00;99.90;;;;;;5050961;28;20070;-53
2020/12/29 12:10:12;;;;;;;9.82;3.58;;;4.90;99.90;;;;;;5057561;28;20033;-49
2020/12/29 12:12:39;;;;;;;6.35;3.45;;;4.90;99.90;;;;;;5069339;28;20040;-51
2020/12/29 12:15:06;;;;;;;6.55;3.35;;;5.00;99.90;;;;;;5053725;28;20141;-56
2020/12/29 12:17:31;;;;;;;7.32;3.63;;;5.00;99.90;;;;;;5051322;28;20417;-51
2020/12/29 12:19:57;;;;;;;6.22;2.75;;;5.10;99.90;;;;;;5070671;28;20139;-50
2020/12/29 12:22:23;;;;;;;6.15;2.50;;;5.20;99.90;;;;;;5068559;28;20045;-51
2020/12/29 12:24:49;;;;;;;5.15;2.53;;;5.30;99.90;;;;;;5057032;28;20036;-53
2020/12/29 12:27:15;;;;;;;4.75;2.63;;;5.30;99.90;;;;;;5065925;28;20032;-51
2020/12/29 12:29:41;;;;;;;5.03;2.47;;;5.30;99.90;;;;;;5049050;28;20405;-55
2020/12/29 12:32:07;;;;;;;5.80;3.88;;;5.30;99.90;;;;;;5055110;28;20029;-55
2020/12/29 12:34:32;;;;;;;7.80;3.58;;;5.30;99.90;;;;;;5062898;28;20040;-57
2020/12/29 12:36:58;;;;;;;6.32;3.08;;;5.50;99.90;;;;;;5050662;28;20538;-55
2020/12/29 12:39:24;;;;;;;4.18;2.50;;;5.40;99.90;;;;;;5057900;28;20043;-54
2020/12/29 12:41:51;;;;;;;4.63;3.25;;;5.50;99.90;;;;;;5070331;28;20063;-52
2020/12/29 12:44:17;;;;;;;5.63;2.53;;;5.50;99.90;;;;;;5070193;28;20040;-55
2020/12/29 12:46:43;;;;;;;4.80;2.28;;;5.50;99.90;;;;;;5070149;28;20029;-54
2020/12/29 12:49:10;;;;;;;4.95;1.60;;;5.60;99.90;;;;;;5070285;28;20059;-51
2020/12/29 12:51:36;;;;;;;7.20;2.10;;;5.60;99.90;;;;;;5059754;28;20135;-54
2020/12/29 12:54:03;;;;;;;2.83;1.40;;;5.60;99.90;;;;;;5066631;28;20048;-53